<?xml version="1.0" encoding="UTF-8" standalone="no" ?>
<gpx xmlns="http://www.topografix.com/GPX/1/1" xmlns:xsi="http://www.w3.org/2001/XMLSchema-instance" xsi:schemaLocation="http://www.topografix.com/GPX/1/1 http://www.topografix.com/GPX/1/1/gpx.xsd" version="1.1" creator="VisuGPX - https://www.visugpx.com">
  <metadata>
    <name>MUCO MOTO 2013 1/3</name>
    <desc><![CDATA[muco 2013 1/3]]></desc>
  </metadata>
  <trk>
    <name><![CDATA[dim. 22/sept./2013 17:21:30]]></name>
    <trkseg>
      <trkpt lat="47.93613" lon="2.98717">
        <ele>121</ele>
        <time>2013-09-22T15:21:30Z</time>
      </trkpt>
      <trkpt lat="47.93636" lon="2.98722">
        <ele>108</ele>
        <time>2013-09-22T15:21:49Z</time>
      </trkpt>
      <trkpt lat="47.93664" lon="2.98715">
        <ele>110</ele>
        <time>2013-09-22T15:21:51Z</time>
      </trkpt>
      <trkpt lat="47.93697" lon="2.98708">
        <ele>113</ele>
        <time>2013-09-22T15:21:53Z</time>
      </trkpt>
      <trkpt lat="47.93731" lon="2.987">
        <ele>114</ele>
        <time>2013-09-22T15:21:55Z</time>
      </trkpt>
      <trkpt lat="47.93762" lon="2.98692">
        <ele>116</ele>
        <time>2013-09-22T15:21:57Z</time>
      </trkpt>
      <trkpt lat="47.93791" lon="2.98686">
        <ele>116</ele>
        <time>2013-09-22T15:21:59Z</time>
      </trkpt>
      <trkpt lat="47.93821" lon="2.98684">
        <ele>114</ele>
        <time>2013-09-22T15:22:01Z</time>
      </trkpt>
      <trkpt lat="47.93851" lon="2.98682">
        <ele>114</ele>
        <time>2013-09-22T15:22:03Z</time>
      </trkpt>
      <trkpt lat="47.93871" lon="2.98682">
        <ele>111</ele>
        <time>2013-09-22T15:22:05Z</time>
      </trkpt>
      <trkpt lat="47.93895" lon="2.98682">
        <ele>112</ele>
        <time>2013-09-22T15:22:07Z</time>
      </trkpt>
      <trkpt lat="47.93915" lon="2.98694">
        <ele>113</ele>
        <time>2013-09-22T15:22:09Z</time>
      </trkpt>
      <trkpt lat="47.9394" lon="2.98706">
        <ele>113</ele>
        <time>2013-09-22T15:22:11Z</time>
      </trkpt>
      <trkpt lat="47.93962" lon="2.98716">
        <ele>113</ele>
        <time>2013-09-22T15:22:13Z</time>
      </trkpt>
      <trkpt lat="47.93982" lon="2.98728">
        <ele>115</ele>
        <time>2013-09-22T15:22:17Z</time>
      </trkpt>
      <trkpt lat="47.93988" lon="2.98692">
        <ele>115</ele>
        <time>2013-09-22T15:22:27Z</time>
      </trkpt>
      <trkpt lat="47.93982" lon="2.98662">
        <ele>116</ele>
        <time>2013-09-22T15:22:29Z</time>
      </trkpt>
      <trkpt lat="47.93971" lon="2.98629">
        <ele>115</ele>
        <time>2013-09-22T15:22:31Z</time>
      </trkpt>
      <trkpt lat="47.93956" lon="2.98595">
        <ele>117</ele>
        <time>2013-09-22T15:22:33Z</time>
      </trkpt>
      <trkpt lat="47.93942" lon="2.9856">
        <ele>117</ele>
        <time>2013-09-22T15:22:35Z</time>
      </trkpt>
      <trkpt lat="47.93929" lon="2.98526">
        <ele>119</ele>
        <time>2013-09-22T15:22:37Z</time>
      </trkpt>
      <trkpt lat="47.93922" lon="2.98489">
        <ele>120</ele>
        <time>2013-09-22T15:22:40Z</time>
      </trkpt>
      <trkpt lat="47.93922" lon="2.98457">
        <ele>120</ele>
        <time>2013-09-22T15:22:43Z</time>
      </trkpt>
      <trkpt lat="47.93922" lon="2.9843">
        <ele>118</ele>
        <time>2013-09-22T15:22:47Z</time>
      </trkpt>
      <trkpt lat="47.93921" lon="2.9839">
        <ele>116</ele>
        <time>2013-09-22T15:22:55Z</time>
      </trkpt>
      <trkpt lat="47.93923" lon="2.98358">
        <ele>118</ele>
        <time>2013-09-22T15:22:57Z</time>
      </trkpt>
      <trkpt lat="47.93925" lon="2.98322">
        <ele>118</ele>
        <time>2013-09-22T15:22:59Z</time>
      </trkpt>
      <trkpt lat="47.93924" lon="2.98286">
        <ele>117</ele>
        <time>2013-09-22T15:23:01Z</time>
      </trkpt>
      <trkpt lat="47.93925" lon="2.98247">
        <ele>116</ele>
        <time>2013-09-22T15:23:03Z</time>
      </trkpt>
      <trkpt lat="47.93926" lon="2.98208">
        <ele>115</ele>
        <time>2013-09-22T15:23:05Z</time>
      </trkpt>
      <trkpt lat="47.93926" lon="2.98171">
        <ele>116</ele>
        <time>2013-09-22T15:23:07Z</time>
      </trkpt>
      <trkpt lat="47.93925" lon="2.98143">
        <ele>119</ele>
        <time>2013-09-22T15:23:09Z</time>
      </trkpt>
      <trkpt lat="47.93932" lon="2.98118">
        <ele>119</ele>
        <time>2013-09-22T15:23:12Z</time>
      </trkpt>
      <trkpt lat="47.93952" lon="2.98118">
        <ele>118</ele>
        <time>2013-09-22T15:23:14Z</time>
      </trkpt>
      <trkpt lat="47.93979" lon="2.98121">
        <ele>118</ele>
        <time>2013-09-22T15:23:16Z</time>
      </trkpt>
      <trkpt lat="47.94" lon="2.98119">
        <ele>119</ele>
        <time>2013-09-22T15:23:18Z</time>
      </trkpt>
      <trkpt lat="47.9402" lon="2.98111">
        <ele>119</ele>
        <time>2013-09-22T15:23:20Z</time>
      </trkpt>
      <trkpt lat="47.94038" lon="2.98099">
        <ele>120</ele>
        <time>2013-09-22T15:23:22Z</time>
      </trkpt>
      <trkpt lat="47.94058" lon="2.98105">
        <ele>122</ele>
        <time>2013-09-22T15:23:24Z</time>
      </trkpt>
      <trkpt lat="47.94079" lon="2.98122">
        <ele>124</ele>
        <time>2013-09-22T15:23:26Z</time>
      </trkpt>
      <trkpt lat="47.94109" lon="2.98131">
        <ele>125</ele>
        <time>2013-09-22T15:23:28Z</time>
      </trkpt>
      <trkpt lat="47.94139" lon="2.98143">
        <ele>125</ele>
        <time>2013-09-22T15:23:30Z</time>
      </trkpt>
      <trkpt lat="47.94166" lon="2.98154">
        <ele>127</ele>
        <time>2013-09-22T15:23:32Z</time>
      </trkpt>
      <trkpt lat="47.94192" lon="2.98152">
        <ele>129</ele>
        <time>2013-09-22T15:23:34Z</time>
      </trkpt>
      <trkpt lat="47.94222" lon="2.98135">
        <ele>132</ele>
        <time>2013-09-22T15:23:36Z</time>
      </trkpt>
      <trkpt lat="47.94251" lon="2.98114">
        <ele>135</ele>
        <time>2013-09-22T15:23:38Z</time>
      </trkpt>
      <trkpt lat="47.9428" lon="2.98086">
        <ele>138</ele>
        <time>2013-09-22T15:23:40Z</time>
      </trkpt>
      <trkpt lat="47.94299" lon="2.98044">
        <ele>142</ele>
        <time>2013-09-22T15:23:42Z</time>
      </trkpt>
      <trkpt lat="47.94309" lon="2.98022">
        <ele>145</ele>
        <time>2013-09-22T15:23:43Z</time>
      </trkpt>
      <trkpt lat="47.94329" lon="2.9798">
        <ele>148</ele>
        <time>2013-09-22T15:23:45Z</time>
      </trkpt>
      <trkpt lat="47.9434" lon="2.97959">
        <ele>148</ele>
        <time>2013-09-22T15:23:46Z</time>
      </trkpt>
      <trkpt lat="47.94354" lon="2.9794">
        <ele>148</ele>
        <time>2013-09-22T15:23:47Z</time>
      </trkpt>
      <trkpt lat="47.94368" lon="2.97921">
        <ele>149</ele>
        <time>2013-09-22T15:23:48Z</time>
      </trkpt>
      <trkpt lat="47.94382" lon="2.97903">
        <ele>151</ele>
        <time>2013-09-22T15:23:49Z</time>
      </trkpt>
      <trkpt lat="47.94396" lon="2.97882">
        <ele>151</ele>
        <time>2013-09-22T15:23:50Z</time>
      </trkpt>
      <trkpt lat="47.94411" lon="2.97861">
        <ele>153</ele>
        <time>2013-09-22T15:23:51Z</time>
      </trkpt>
      <trkpt lat="47.94427" lon="2.97841">
        <ele>154</ele>
        <time>2013-09-22T15:23:52Z</time>
      </trkpt>
      <trkpt lat="47.94442" lon="2.97819">
        <ele>154</ele>
        <time>2013-09-22T15:23:53Z</time>
      </trkpt>
      <trkpt lat="47.94457" lon="2.97798">
        <ele>156</ele>
        <time>2013-09-22T15:23:54Z</time>
      </trkpt>
      <trkpt lat="47.94473" lon="2.97777">
        <ele>157</ele>
        <time>2013-09-22T15:23:55Z</time>
      </trkpt>
      <trkpt lat="47.9449" lon="2.97758">
        <ele>157</ele>
        <time>2013-09-22T15:23:56Z</time>
      </trkpt>
      <trkpt lat="47.94506" lon="2.97737">
        <ele>158</ele>
        <time>2013-09-22T15:23:57Z</time>
      </trkpt>
      <trkpt lat="47.94523" lon="2.97716">
        <ele>158</ele>
        <time>2013-09-22T15:23:58Z</time>
      </trkpt>
      <trkpt lat="47.94537" lon="2.97692">
        <ele>159</ele>
        <time>2013-09-22T15:23:59Z</time>
      </trkpt>
      <trkpt lat="47.94551" lon="2.97668">
        <ele>159</ele>
        <time>2013-09-22T15:24:00Z</time>
      </trkpt>
      <trkpt lat="47.94565" lon="2.97643">
        <ele>159</ele>
        <time>2013-09-22T15:24:01Z</time>
      </trkpt>
      <trkpt lat="47.94582" lon="2.97623">
        <ele>159</ele>
        <time>2013-09-22T15:24:02Z</time>
      </trkpt>
      <trkpt lat="47.94598" lon="2.97605">
        <ele>158</ele>
        <time>2013-09-22T15:24:03Z</time>
      </trkpt>
      <trkpt lat="47.94616" lon="2.97587">
        <ele>160</ele>
        <time>2013-09-22T15:24:04Z</time>
      </trkpt>
      <trkpt lat="47.94635" lon="2.9757">
        <ele>161</ele>
        <time>2013-09-22T15:24:05Z</time>
      </trkpt>
      <trkpt lat="47.94655" lon="2.97553">
        <ele>162</ele>
        <time>2013-09-22T15:24:06Z</time>
      </trkpt>
      <trkpt lat="47.94675" lon="2.97536">
        <ele>163</ele>
        <time>2013-09-22T15:24:07Z</time>
      </trkpt>
      <trkpt lat="47.94694" lon="2.97517">
        <ele>163</ele>
        <time>2013-09-22T15:24:08Z</time>
      </trkpt>
      <trkpt lat="47.94713" lon="2.975">
        <ele>165</ele>
        <time>2013-09-22T15:24:09Z</time>
      </trkpt>
      <trkpt lat="47.94731" lon="2.97484">
        <ele>166</ele>
        <time>2013-09-22T15:24:10Z</time>
      </trkpt>
      <trkpt lat="47.9475" lon="2.97467">
        <ele>167</ele>
        <time>2013-09-22T15:24:11Z</time>
      </trkpt>
      <trkpt lat="47.94769" lon="2.9745">
        <ele>167</ele>
        <time>2013-09-22T15:24:12Z</time>
      </trkpt>
      <trkpt lat="47.94788" lon="2.97436">
        <ele>167</ele>
        <time>2013-09-22T15:24:13Z</time>
      </trkpt>
      <trkpt lat="47.94806" lon="2.97423">
        <ele>167</ele>
        <time>2013-09-22T15:24:14Z</time>
      </trkpt>
      <trkpt lat="47.94825" lon="2.97411">
        <ele>167</ele>
        <time>2013-09-22T15:24:15Z</time>
      </trkpt>
      <trkpt lat="47.94845" lon="2.97402">
        <ele>167</ele>
        <time>2013-09-22T15:24:16Z</time>
      </trkpt>
      <trkpt lat="47.94866" lon="2.97392">
        <ele>167</ele>
        <time>2013-09-22T15:24:17Z</time>
      </trkpt>
      <trkpt lat="47.94888" lon="2.97381">
        <ele>166</ele>
        <time>2013-09-22T15:24:18Z</time>
      </trkpt>
      <trkpt lat="47.9491" lon="2.97371">
        <ele>166</ele>
        <time>2013-09-22T15:24:19Z</time>
      </trkpt>
      <trkpt lat="47.94932" lon="2.97359">
        <ele>166</ele>
        <time>2013-09-22T15:24:20Z</time>
      </trkpt>
      <trkpt lat="47.94955" lon="2.97346">
        <ele>166</ele>
        <time>2013-09-22T15:24:21Z</time>
      </trkpt>
      <trkpt lat="47.94979" lon="2.97334">
        <ele>166</ele>
        <time>2013-09-22T15:24:22Z</time>
      </trkpt>
      <trkpt lat="47.95003" lon="2.97324">
        <ele>166</ele>
        <time>2013-09-22T15:24:23Z</time>
      </trkpt>
      <trkpt lat="47.95025" lon="2.97314">
        <ele>165</ele>
        <time>2013-09-22T15:24:24Z</time>
      </trkpt>
      <trkpt lat="47.95047" lon="2.97304">
        <ele>166</ele>
        <time>2013-09-22T15:24:25Z</time>
      </trkpt>
      <trkpt lat="47.95071" lon="2.97294">
        <ele>167</ele>
        <time>2013-09-22T15:24:26Z</time>
      </trkpt>
      <trkpt lat="47.95093" lon="2.97284">
        <ele>168</ele>
        <time>2013-09-22T15:24:27Z</time>
      </trkpt>
      <trkpt lat="47.95115" lon="2.97273">
        <ele>168</ele>
        <time>2013-09-22T15:24:28Z</time>
      </trkpt>
      <trkpt lat="47.95135" lon="2.97265">
        <ele>168</ele>
        <time>2013-09-22T15:24:29Z</time>
      </trkpt>
      <trkpt lat="47.95155" lon="2.97256">
        <ele>168</ele>
        <time>2013-09-22T15:24:30Z</time>
      </trkpt>
      <trkpt lat="47.95172" lon="2.97246">
        <ele>169</ele>
        <time>2013-09-22T15:24:31Z</time>
      </trkpt>
      <trkpt lat="47.95189" lon="2.97234">
        <ele>169</ele>
        <time>2013-09-22T15:24:32Z</time>
      </trkpt>
      <trkpt lat="47.95205" lon="2.97218">
        <ele>170</ele>
        <time>2013-09-22T15:24:33Z</time>
      </trkpt>
      <trkpt lat="47.95219" lon="2.97194">
        <ele>170</ele>
        <time>2013-09-22T15:24:34Z</time>
      </trkpt>
      <trkpt lat="47.95232" lon="2.97172">
        <ele>171</ele>
        <time>2013-09-22T15:24:35Z</time>
      </trkpt>
      <trkpt lat="47.95248" lon="2.97152">
        <ele>172</ele>
        <time>2013-09-22T15:24:36Z</time>
      </trkpt>
      <trkpt lat="47.95267" lon="2.97134">
        <ele>173</ele>
        <time>2013-09-22T15:24:37Z</time>
      </trkpt>
      <trkpt lat="47.95286" lon="2.97116">
        <ele>174</ele>
        <time>2013-09-22T15:24:38Z</time>
      </trkpt>
      <trkpt lat="47.95305" lon="2.97099">
        <ele>173</ele>
        <time>2013-09-22T15:24:39Z</time>
      </trkpt>
      <trkpt lat="47.95321" lon="2.9708">
        <ele>173</ele>
        <time>2013-09-22T15:24:40Z</time>
      </trkpt>
      <trkpt lat="47.95339" lon="2.97059">
        <ele>173</ele>
        <time>2013-09-22T15:24:41Z</time>
      </trkpt>
      <trkpt lat="47.95356" lon="2.9704">
        <ele>174</ele>
        <time>2013-09-22T15:24:42Z</time>
      </trkpt>
      <trkpt lat="47.95374" lon="2.97022">
        <ele>175</ele>
        <time>2013-09-22T15:24:43Z</time>
      </trkpt>
      <trkpt lat="47.95392" lon="2.97004">
        <ele>176</ele>
        <time>2013-09-22T15:24:44Z</time>
      </trkpt>
      <trkpt lat="47.95408" lon="2.96986">
        <ele>177</ele>
        <time>2013-09-22T15:24:45Z</time>
      </trkpt>
      <trkpt lat="47.95421" lon="2.96965">
        <ele>177</ele>
        <time>2013-09-22T15:24:46Z</time>
      </trkpt>
      <trkpt lat="47.9543" lon="2.96938">
        <ele>178</ele>
        <time>2013-09-22T15:24:47Z</time>
      </trkpt>
      <trkpt lat="47.95435" lon="2.9691">
        <ele>177</ele>
        <time>2013-09-22T15:24:48Z</time>
      </trkpt>
      <trkpt lat="47.95446" lon="2.96885">
        <ele>177</ele>
        <time>2013-09-22T15:24:49Z</time>
      </trkpt>
      <trkpt lat="47.95455" lon="2.96858">
        <ele>178</ele>
        <time>2013-09-22T15:24:50Z</time>
      </trkpt>
      <trkpt lat="47.95468" lon="2.96837">
        <ele>178</ele>
        <time>2013-09-22T15:24:51Z</time>
      </trkpt>
      <trkpt lat="47.95481" lon="2.96817">
        <ele>180</ele>
        <time>2013-09-22T15:24:52Z</time>
      </trkpt>
      <trkpt lat="47.95498" lon="2.96802">
        <ele>180</ele>
        <time>2013-09-22T15:24:53Z</time>
      </trkpt>
      <trkpt lat="47.95517" lon="2.96792">
        <ele>180</ele>
        <time>2013-09-22T15:24:54Z</time>
      </trkpt>
      <trkpt lat="47.95537" lon="2.96784">
        <ele>181</ele>
        <time>2013-09-22T15:24:55Z</time>
      </trkpt>
      <trkpt lat="47.95558" lon="2.96778">
        <ele>181</ele>
        <time>2013-09-22T15:24:56Z</time>
      </trkpt>
      <trkpt lat="47.95579" lon="2.96771">
        <ele>181</ele>
        <time>2013-09-22T15:24:57Z</time>
      </trkpt>
      <trkpt lat="47.956" lon="2.96766">
        <ele>181</ele>
        <time>2013-09-22T15:24:58Z</time>
      </trkpt>
      <trkpt lat="47.95621" lon="2.96763">
        <ele>180</ele>
        <time>2013-09-22T15:24:59Z</time>
      </trkpt>
      <trkpt lat="47.95643" lon="2.96761">
        <ele>180</ele>
        <time>2013-09-22T15:25:00Z</time>
      </trkpt>
      <trkpt lat="47.95663" lon="2.96763">
        <ele>180</ele>
        <time>2013-09-22T15:25:01Z</time>
      </trkpt>
      <trkpt lat="47.95683" lon="2.96766">
        <ele>180</ele>
        <time>2013-09-22T15:25:02Z</time>
      </trkpt>
      <trkpt lat="47.957" lon="2.96771">
        <ele>180</ele>
        <time>2013-09-22T15:25:03Z</time>
      </trkpt>
      <trkpt lat="47.95729" lon="2.96776">
        <ele>179</ele>
        <time>2013-09-22T15:25:05Z</time>
      </trkpt>
      <trkpt lat="47.9575" lon="2.96776">
        <ele>178</ele>
        <time>2013-09-22T15:25:07Z</time>
      </trkpt>
      <trkpt lat="47.95772" lon="2.96756">
        <ele>179</ele>
        <time>2013-09-22T15:25:09Z</time>
      </trkpt>
      <trkpt lat="47.95794" lon="2.96723">
        <ele>179</ele>
        <time>2013-09-22T15:25:11Z</time>
      </trkpt>
      <trkpt lat="47.95819" lon="2.96688">
        <ele>179</ele>
        <time>2013-09-22T15:25:13Z</time>
      </trkpt>
      <trkpt lat="47.95833" lon="2.96668">
        <ele>178</ele>
        <time>2013-09-22T15:25:14Z</time>
      </trkpt>
      <trkpt lat="47.95847" lon="2.96646">
        <ele>179</ele>
        <time>2013-09-22T15:25:15Z</time>
      </trkpt>
      <trkpt lat="47.95861" lon="2.96626">
        <ele>179</ele>
        <time>2013-09-22T15:25:16Z</time>
      </trkpt>
      <trkpt lat="47.95875" lon="2.96606">
        <ele>179</ele>
        <time>2013-09-22T15:25:17Z</time>
      </trkpt>
      <trkpt lat="47.95888" lon="2.96587">
        <ele>180</ele>
        <time>2013-09-22T15:25:18Z</time>
      </trkpt>
      <trkpt lat="47.95911" lon="2.96554">
        <ele>181</ele>
        <time>2013-09-22T15:25:20Z</time>
      </trkpt>
      <trkpt lat="47.95933" lon="2.96536">
        <ele>181</ele>
        <time>2013-09-22T15:25:22Z</time>
      </trkpt>
      <trkpt lat="47.95964" lon="2.96542">
        <ele>182</ele>
        <time>2013-09-22T15:25:24Z</time>
      </trkpt>
      <trkpt lat="47.95998" lon="2.96558">
        <ele>183</ele>
        <time>2013-09-22T15:25:26Z</time>
      </trkpt>
      <trkpt lat="47.96016" lon="2.96566">
        <ele>182</ele>
        <time>2013-09-22T15:25:27Z</time>
      </trkpt>
      <trkpt lat="47.96071" lon="2.96594">
        <ele>183</ele>
        <time>2013-09-22T15:25:30Z</time>
      </trkpt>
      <trkpt lat="47.96105" lon="2.9661">
        <ele>183</ele>
        <time>2013-09-22T15:25:32Z</time>
      </trkpt>
      <trkpt lat="47.96144" lon="2.96617">
        <ele>188</ele>
        <time>2013-09-22T15:25:34Z</time>
      </trkpt>
      <trkpt lat="47.96162" lon="2.96614">
        <ele>189</ele>
        <time>2013-09-22T15:25:35Z</time>
      </trkpt>
      <trkpt lat="47.96181" lon="2.96607">
        <ele>188</ele>
        <time>2013-09-22T15:25:36Z</time>
      </trkpt>
      <trkpt lat="47.96199" lon="2.96596">
        <ele>188</ele>
        <time>2013-09-22T15:25:37Z</time>
      </trkpt>
      <trkpt lat="47.96216" lon="2.96582">
        <ele>185</ele>
        <time>2013-09-22T15:25:38Z</time>
      </trkpt>
      <trkpt lat="47.96232" lon="2.96567">
        <ele>182</ele>
        <time>2013-09-22T15:25:39Z</time>
      </trkpt>
      <trkpt lat="47.9625" lon="2.96552">
        <ele>182</ele>
        <time>2013-09-22T15:25:40Z</time>
      </trkpt>
      <trkpt lat="47.96268" lon="2.96536">
        <ele>181</ele>
        <time>2013-09-22T15:25:41Z</time>
      </trkpt>
      <trkpt lat="47.96286" lon="2.9652">
        <ele>181</ele>
        <time>2013-09-22T15:25:42Z</time>
      </trkpt>
      <trkpt lat="47.96303" lon="2.96505">
        <ele>181</ele>
        <time>2013-09-22T15:25:43Z</time>
      </trkpt>
      <trkpt lat="47.9632" lon="2.96491">
        <ele>182</ele>
        <time>2013-09-22T15:25:44Z</time>
      </trkpt>
      <trkpt lat="47.96337" lon="2.96478">
        <ele>183</ele>
        <time>2013-09-22T15:25:45Z</time>
      </trkpt>
      <trkpt lat="47.96354" lon="2.96468">
        <ele>182</ele>
        <time>2013-09-22T15:25:46Z</time>
      </trkpt>
      <trkpt lat="47.96372" lon="2.96468">
        <ele>181</ele>
        <time>2013-09-22T15:25:47Z</time>
      </trkpt>
      <trkpt lat="47.96391" lon="2.96467">
        <ele>182</ele>
        <time>2013-09-22T15:25:48Z</time>
      </trkpt>
      <trkpt lat="47.96411" lon="2.96467">
        <ele>183</ele>
        <time>2013-09-22T15:25:49Z</time>
      </trkpt>
      <trkpt lat="47.9643" lon="2.96467">
        <ele>182</ele>
        <time>2013-09-22T15:25:50Z</time>
      </trkpt>
      <trkpt lat="47.96449" lon="2.96467">
        <ele>182</ele>
        <time>2013-09-22T15:25:51Z</time>
      </trkpt>
      <trkpt lat="47.96467" lon="2.96461">
        <ele>182</ele>
        <time>2013-09-22T15:25:52Z</time>
      </trkpt>
      <trkpt lat="47.96486" lon="2.96455">
        <ele>181</ele>
        <time>2013-09-22T15:25:53Z</time>
      </trkpt>
      <trkpt lat="47.96503" lon="2.96447">
        <ele>180</ele>
        <time>2013-09-22T15:25:54Z</time>
      </trkpt>
      <trkpt lat="47.96522" lon="2.96437">
        <ele>179</ele>
        <time>2013-09-22T15:25:55Z</time>
      </trkpt>
      <trkpt lat="47.96541" lon="2.96428">
        <ele>179</ele>
        <time>2013-09-22T15:25:56Z</time>
      </trkpt>
      <trkpt lat="47.96558" lon="2.96415">
        <ele>180</ele>
        <time>2013-09-22T15:25:57Z</time>
      </trkpt>
      <trkpt lat="47.96576" lon="2.96401">
        <ele>179</ele>
        <time>2013-09-22T15:25:58Z</time>
      </trkpt>
      <trkpt lat="47.96593" lon="2.96388">
        <ele>178</ele>
        <time>2013-09-22T15:25:59Z</time>
      </trkpt>
      <trkpt lat="47.9661" lon="2.96377">
        <ele>178</ele>
        <time>2013-09-22T15:26:00Z</time>
      </trkpt>
      <trkpt lat="47.96627" lon="2.96366">
        <ele>178</ele>
        <time>2013-09-22T15:26:01Z</time>
      </trkpt>
      <trkpt lat="47.96655" lon="2.9634">
        <ele>179</ele>
        <time>2013-09-22T15:26:03Z</time>
      </trkpt>
      <trkpt lat="47.96679" lon="2.96316">
        <ele>180</ele>
        <time>2013-09-22T15:26:05Z</time>
      </trkpt>
      <trkpt lat="47.96694" lon="2.96291">
        <ele>174</ele>
        <time>2013-09-22T15:26:08Z</time>
      </trkpt>
      <trkpt lat="47.96721" lon="2.963">
        <ele>176</ele>
        <time>2013-09-22T15:26:16Z</time>
      </trkpt>
      <trkpt lat="47.96747" lon="2.96325">
        <ele>176</ele>
        <time>2013-09-22T15:26:18Z</time>
      </trkpt>
      <trkpt lat="47.96763" lon="2.96341">
        <ele>176</ele>
        <time>2013-09-22T15:26:19Z</time>
      </trkpt>
      <trkpt lat="47.96778" lon="2.96357">
        <ele>177</ele>
        <time>2013-09-22T15:26:20Z</time>
      </trkpt>
      <trkpt lat="47.96795" lon="2.96374">
        <ele>177</ele>
        <time>2013-09-22T15:26:21Z</time>
      </trkpt>
      <trkpt lat="47.96811" lon="2.9639">
        <ele>175</ele>
        <time>2013-09-22T15:26:22Z</time>
      </trkpt>
      <trkpt lat="47.96825" lon="2.96408">
        <ele>175</ele>
        <time>2013-09-22T15:26:23Z</time>
      </trkpt>
      <trkpt lat="47.96841" lon="2.96428">
        <ele>174</ele>
        <time>2013-09-22T15:26:24Z</time>
      </trkpt>
      <trkpt lat="47.96857" lon="2.96448">
        <ele>175</ele>
        <time>2013-09-22T15:26:25Z</time>
      </trkpt>
      <trkpt lat="47.96873" lon="2.96468">
        <ele>176</ele>
        <time>2013-09-22T15:26:26Z</time>
      </trkpt>
      <trkpt lat="47.96889" lon="2.96488">
        <ele>176</ele>
        <time>2013-09-22T15:26:27Z</time>
      </trkpt>
      <trkpt lat="47.96905" lon="2.96511">
        <ele>176</ele>
        <time>2013-09-22T15:26:28Z</time>
      </trkpt>
      <trkpt lat="47.96924" lon="2.96535">
        <ele>180</ele>
        <time>2013-09-22T15:26:29Z</time>
      </trkpt>
      <trkpt lat="47.96941" lon="2.96557">
        <ele>182</ele>
        <time>2013-09-22T15:26:30Z</time>
      </trkpt>
      <trkpt lat="47.96959" lon="2.96579">
        <ele>182</ele>
        <time>2013-09-22T15:26:31Z</time>
      </trkpt>
      <trkpt lat="47.96976" lon="2.96599">
        <ele>180</ele>
        <time>2013-09-22T15:26:32Z</time>
      </trkpt>
      <trkpt lat="47.96993" lon="2.9662">
        <ele>180</ele>
        <time>2013-09-22T15:26:33Z</time>
      </trkpt>
      <trkpt lat="47.97011" lon="2.96642">
        <ele>178</ele>
        <time>2013-09-22T15:26:34Z</time>
      </trkpt>
      <trkpt lat="47.9703" lon="2.96663">
        <ele>176</ele>
        <time>2013-09-22T15:26:35Z</time>
      </trkpt>
      <trkpt lat="47.97048" lon="2.96684">
        <ele>176</ele>
        <time>2013-09-22T15:26:36Z</time>
      </trkpt>
      <trkpt lat="47.97067" lon="2.96705">
        <ele>176</ele>
        <time>2013-09-22T15:26:37Z</time>
      </trkpt>
      <trkpt lat="47.97086" lon="2.96726">
        <ele>176</ele>
        <time>2013-09-22T15:26:38Z</time>
      </trkpt>
      <trkpt lat="47.97104" lon="2.96748">
        <ele>176</ele>
        <time>2013-09-22T15:26:39Z</time>
      </trkpt>
      <trkpt lat="47.9712" lon="2.96768">
        <ele>175</ele>
        <time>2013-09-22T15:26:40Z</time>
      </trkpt>
      <trkpt lat="47.97136" lon="2.96787">
        <ele>175</ele>
        <time>2013-09-22T15:26:41Z</time>
      </trkpt>
      <trkpt lat="47.97153" lon="2.96806">
        <ele>175</ele>
        <time>2013-09-22T15:26:42Z</time>
      </trkpt>
      <trkpt lat="47.97169" lon="2.96825">
        <ele>174</ele>
        <time>2013-09-22T15:26:43Z</time>
      </trkpt>
      <trkpt lat="47.97184" lon="2.96844">
        <ele>174</ele>
        <time>2013-09-22T15:26:44Z</time>
      </trkpt>
      <trkpt lat="47.97207" lon="2.96871">
        <ele>174</ele>
        <time>2013-09-22T15:26:46Z</time>
      </trkpt>
      <trkpt lat="47.97222" lon="2.96889">
        <ele>174</ele>
        <time>2013-09-22T15:26:48Z</time>
      </trkpt>
      <trkpt lat="47.97247" lon="2.96916">
        <ele>173</ele>
        <time>2013-09-22T15:26:51Z</time>
      </trkpt>
      <trkpt lat="47.97273" lon="2.96946">
        <ele>173</ele>
        <time>2013-09-22T15:26:53Z</time>
      </trkpt>
      <trkpt lat="47.97291" lon="2.96966">
        <ele>171</ele>
        <time>2013-09-22T15:26:54Z</time>
      </trkpt>
      <trkpt lat="47.97308" lon="2.96986">
        <ele>170</ele>
        <time>2013-09-22T15:26:55Z</time>
      </trkpt>
      <trkpt lat="47.97325" lon="2.97007">
        <ele>170</ele>
        <time>2013-09-22T15:26:56Z</time>
      </trkpt>
      <trkpt lat="47.97343" lon="2.97029">
        <ele>171</ele>
        <time>2013-09-22T15:26:57Z</time>
      </trkpt>
      <trkpt lat="47.9736" lon="2.97051">
        <ele>170</ele>
        <time>2013-09-22T15:26:58Z</time>
      </trkpt>
      <trkpt lat="47.97378" lon="2.97071">
        <ele>171</ele>
        <time>2013-09-22T15:26:59Z</time>
      </trkpt>
      <trkpt lat="47.97397" lon="2.97089">
        <ele>171</ele>
        <time>2013-09-22T15:27:00Z</time>
      </trkpt>
      <trkpt lat="47.97417" lon="2.97104">
        <ele>170</ele>
        <time>2013-09-22T15:27:01Z</time>
      </trkpt>
      <trkpt lat="47.97438" lon="2.97119">
        <ele>172</ele>
        <time>2013-09-22T15:27:02Z</time>
      </trkpt>
      <trkpt lat="47.9746" lon="2.97133">
        <ele>173</ele>
        <time>2013-09-22T15:27:03Z</time>
      </trkpt>
      <trkpt lat="47.97483" lon="2.97146">
        <ele>172</ele>
        <time>2013-09-22T15:27:04Z</time>
      </trkpt>
      <trkpt lat="47.97505" lon="2.9716">
        <ele>173</ele>
        <time>2013-09-22T15:27:05Z</time>
      </trkpt>
      <trkpt lat="47.97527" lon="2.97174">
        <ele>174</ele>
        <time>2013-09-22T15:27:06Z</time>
      </trkpt>
      <trkpt lat="47.9755" lon="2.97187">
        <ele>173</ele>
        <time>2013-09-22T15:27:07Z</time>
      </trkpt>
      <trkpt lat="47.97571" lon="2.972">
        <ele>172</ele>
        <time>2013-09-22T15:27:08Z</time>
      </trkpt>
      <trkpt lat="47.97593" lon="2.97213">
        <ele>172</ele>
        <time>2013-09-22T15:27:09Z</time>
      </trkpt>
      <trkpt lat="47.97616" lon="2.97224">
        <ele>172</ele>
        <time>2013-09-22T15:27:10Z</time>
      </trkpt>
      <trkpt lat="47.97638" lon="2.97233">
        <ele>172</ele>
        <time>2013-09-22T15:27:11Z</time>
      </trkpt>
      <trkpt lat="47.97661" lon="2.97241">
        <ele>171</ele>
        <time>2013-09-22T15:27:12Z</time>
      </trkpt>
      <trkpt lat="47.97684" lon="2.9725">
        <ele>171</ele>
        <time>2013-09-22T15:27:13Z</time>
      </trkpt>
      <trkpt lat="47.97706" lon="2.97257">
        <ele>170</ele>
        <time>2013-09-22T15:27:14Z</time>
      </trkpt>
      <trkpt lat="47.9773" lon="2.97266">
        <ele>169</ele>
        <time>2013-09-22T15:27:15Z</time>
      </trkpt>
      <trkpt lat="47.97754" lon="2.97275">
        <ele>169</ele>
        <time>2013-09-22T15:27:16Z</time>
      </trkpt>
      <trkpt lat="47.97774" lon="2.97282">
        <ele>168</ele>
        <time>2013-09-22T15:27:17Z</time>
      </trkpt>
      <trkpt lat="47.97795" lon="2.97289">
        <ele>167</ele>
        <time>2013-09-22T15:27:18Z</time>
      </trkpt>
      <trkpt lat="47.97815" lon="2.97297">
        <ele>167</ele>
        <time>2013-09-22T15:27:19Z</time>
      </trkpt>
      <trkpt lat="47.97836" lon="2.97308">
        <ele>167</ele>
        <time>2013-09-22T15:27:20Z</time>
      </trkpt>
      <trkpt lat="47.97856" lon="2.97321">
        <ele>167</ele>
        <time>2013-09-22T15:27:21Z</time>
      </trkpt>
      <trkpt lat="47.97875" lon="2.97334">
        <ele>166</ele>
        <time>2013-09-22T15:27:22Z</time>
      </trkpt>
      <trkpt lat="47.97895" lon="2.97349">
        <ele>166</ele>
        <time>2013-09-22T15:27:23Z</time>
      </trkpt>
      <trkpt lat="47.97914" lon="2.97366">
        <ele>166</ele>
        <time>2013-09-22T15:27:24Z</time>
      </trkpt>
      <trkpt lat="47.97935" lon="2.97382">
        <ele>165</ele>
        <time>2013-09-22T15:27:25Z</time>
      </trkpt>
      <trkpt lat="47.97955" lon="2.97398">
        <ele>166</ele>
        <time>2013-09-22T15:27:26Z</time>
      </trkpt>
      <trkpt lat="47.97975" lon="2.97414">
        <ele>168</ele>
        <time>2013-09-22T15:27:27Z</time>
      </trkpt>
      <trkpt lat="47.97994" lon="2.9743">
        <ele>168</ele>
        <time>2013-09-22T15:27:28Z</time>
      </trkpt>
      <trkpt lat="47.98013" lon="2.97445">
        <ele>168</ele>
        <time>2013-09-22T15:27:29Z</time>
      </trkpt>
      <trkpt lat="47.98032" lon="2.97462">
        <ele>168</ele>
        <time>2013-09-22T15:27:30Z</time>
      </trkpt>
      <trkpt lat="47.98049" lon="2.97482">
        <ele>167</ele>
        <time>2013-09-22T15:27:31Z</time>
      </trkpt>
      <trkpt lat="47.98065" lon="2.97504">
        <ele>169</ele>
        <time>2013-09-22T15:27:32Z</time>
      </trkpt>
      <trkpt lat="47.9808" lon="2.97527">
        <ele>169</ele>
        <time>2013-09-22T15:27:33Z</time>
      </trkpt>
      <trkpt lat="47.98099" lon="2.97545">
        <ele>169</ele>
        <time>2013-09-22T15:27:34Z</time>
      </trkpt>
      <trkpt lat="47.98118" lon="2.97564">
        <ele>170</ele>
        <time>2013-09-22T15:27:35Z</time>
      </trkpt>
      <trkpt lat="47.98138" lon="2.97583">
        <ele>169</ele>
        <time>2013-09-22T15:27:36Z</time>
      </trkpt>
      <trkpt lat="47.98159" lon="2.97602">
        <ele>170</ele>
        <time>2013-09-22T15:27:37Z</time>
      </trkpt>
      <trkpt lat="47.9818" lon="2.9762">
        <ele>169</ele>
        <time>2013-09-22T15:27:38Z</time>
      </trkpt>
      <trkpt lat="47.98202" lon="2.97637">
        <ele>169</ele>
        <time>2013-09-22T15:27:39Z</time>
      </trkpt>
      <trkpt lat="47.98223" lon="2.97654">
        <ele>169</ele>
        <time>2013-09-22T15:27:40Z</time>
      </trkpt>
      <trkpt lat="47.98244" lon="2.97672">
        <ele>169</ele>
        <time>2013-09-22T15:27:41Z</time>
      </trkpt>
      <trkpt lat="47.98265" lon="2.97689">
        <ele>168</ele>
        <time>2013-09-22T15:27:42Z</time>
      </trkpt>
      <trkpt lat="47.98285" lon="2.97707">
        <ele>167</ele>
        <time>2013-09-22T15:27:43Z</time>
      </trkpt>
      <trkpt lat="47.98304" lon="2.97724">
        <ele>167</ele>
        <time>2013-09-22T15:27:44Z</time>
      </trkpt>
      <trkpt lat="47.98323" lon="2.97744">
        <ele>168</ele>
        <time>2013-09-22T15:27:45Z</time>
      </trkpt>
      <trkpt lat="47.9834" lon="2.97766">
        <ele>168</ele>
        <time>2013-09-22T15:27:46Z</time>
      </trkpt>
      <trkpt lat="47.98358" lon="2.97789">
        <ele>167</ele>
        <time>2013-09-22T15:27:47Z</time>
      </trkpt>
      <trkpt lat="47.98375" lon="2.97813">
        <ele>167</ele>
        <time>2013-09-22T15:27:48Z</time>
      </trkpt>
      <trkpt lat="47.98393" lon="2.97838">
        <ele>167</ele>
        <time>2013-09-22T15:27:49Z</time>
      </trkpt>
      <trkpt lat="47.9841" lon="2.97862">
        <ele>166</ele>
        <time>2013-09-22T15:27:50Z</time>
      </trkpt>
      <trkpt lat="47.98428" lon="2.97887">
        <ele>165</ele>
        <time>2013-09-22T15:27:51Z</time>
      </trkpt>
      <trkpt lat="47.98446" lon="2.97913">
        <ele>165</ele>
        <time>2013-09-22T15:27:52Z</time>
      </trkpt>
      <trkpt lat="47.98464" lon="2.97938">
        <ele>165</ele>
        <time>2013-09-22T15:27:53Z</time>
      </trkpt>
      <trkpt lat="47.98482" lon="2.97963">
        <ele>165</ele>
        <time>2013-09-22T15:27:54Z</time>
      </trkpt>
      <trkpt lat="47.985" lon="2.97988">
        <ele>165</ele>
        <time>2013-09-22T15:27:55Z</time>
      </trkpt>
      <trkpt lat="47.98517" lon="2.98013">
        <ele>163</ele>
        <time>2013-09-22T15:27:56Z</time>
      </trkpt>
      <trkpt lat="47.98536" lon="2.98037">
        <ele>164</ele>
        <time>2013-09-22T15:27:57Z</time>
      </trkpt>
      <trkpt lat="47.98554" lon="2.98062">
        <ele>164</ele>
        <time>2013-09-22T15:27:58Z</time>
      </trkpt>
      <trkpt lat="47.98571" lon="2.98086">
        <ele>164</ele>
        <time>2013-09-22T15:27:59Z</time>
      </trkpt>
      <trkpt lat="47.98588" lon="2.98111">
        <ele>164</ele>
        <time>2013-09-22T15:28:00Z</time>
      </trkpt>
      <trkpt lat="47.98606" lon="2.98135">
        <ele>165</ele>
        <time>2013-09-22T15:28:01Z</time>
      </trkpt>
      <trkpt lat="47.98624" lon="2.98159">
        <ele>164</ele>
        <time>2013-09-22T15:28:02Z</time>
      </trkpt>
      <trkpt lat="47.9864" lon="2.98181">
        <ele>164</ele>
        <time>2013-09-22T15:28:03Z</time>
      </trkpt>
      <trkpt lat="47.98656" lon="2.98202">
        <ele>163</ele>
        <time>2013-09-22T15:28:04Z</time>
      </trkpt>
      <trkpt lat="47.98671" lon="2.98223">
        <ele>163</ele>
        <time>2013-09-22T15:28:05Z</time>
      </trkpt>
      <trkpt lat="47.98685" lon="2.98244">
        <ele>163</ele>
        <time>2013-09-22T15:28:06Z</time>
      </trkpt>
      <trkpt lat="47.98709" lon="2.98278">
        <ele>162</ele>
        <time>2013-09-22T15:28:08Z</time>
      </trkpt>
      <trkpt lat="47.98727" lon="2.98304">
        <ele>161</ele>
        <time>2013-09-22T15:28:10Z</time>
      </trkpt>
      <trkpt lat="47.98743" lon="2.98327">
        <ele>163</ele>
        <time>2013-09-22T15:28:13Z</time>
      </trkpt>
      <trkpt lat="47.98756" lon="2.98351">
        <ele>161</ele>
        <time>2013-09-22T15:28:22Z</time>
      </trkpt>
      <trkpt lat="47.9877" lon="2.98381">
        <ele>163</ele>
        <time>2013-09-22T15:28:24Z</time>
      </trkpt>
      <trkpt lat="47.98785" lon="2.98421">
        <ele>164</ele>
        <time>2013-09-22T15:28:26Z</time>
      </trkpt>
      <trkpt lat="47.98804" lon="2.98463">
        <ele>164</ele>
        <time>2013-09-22T15:28:28Z</time>
      </trkpt>
      <trkpt lat="47.98824" lon="2.98506">
        <ele>165</ele>
        <time>2013-09-22T15:28:30Z</time>
      </trkpt>
      <trkpt lat="47.98834" lon="2.9853">
        <ele>166</ele>
        <time>2013-09-22T15:28:31Z</time>
      </trkpt>
      <trkpt lat="47.98842" lon="2.98554">
        <ele>166</ele>
        <time>2013-09-22T15:28:32Z</time>
      </trkpt>
      <trkpt lat="47.98853" lon="2.98578">
        <ele>166</ele>
        <time>2013-09-22T15:28:33Z</time>
      </trkpt>
      <trkpt lat="47.98864" lon="2.98603">
        <ele>167</ele>
        <time>2013-09-22T15:28:34Z</time>
      </trkpt>
      <trkpt lat="47.98873" lon="2.98627">
        <ele>166</ele>
        <time>2013-09-22T15:28:35Z</time>
      </trkpt>
      <trkpt lat="47.98884" lon="2.98651">
        <ele>166</ele>
        <time>2013-09-22T15:28:36Z</time>
      </trkpt>
      <trkpt lat="47.98895" lon="2.98673">
        <ele>166</ele>
        <time>2013-09-22T15:28:37Z</time>
      </trkpt>
      <trkpt lat="47.98906" lon="2.98697">
        <ele>166</ele>
        <time>2013-09-22T15:28:38Z</time>
      </trkpt>
      <trkpt lat="47.98932" lon="2.98737">
        <ele>166</ele>
        <time>2013-09-22T15:28:40Z</time>
      </trkpt>
      <trkpt lat="47.98964" lon="2.98765">
        <ele>167</ele>
        <time>2013-09-22T15:28:42Z</time>
      </trkpt>
      <trkpt lat="47.98981" lon="2.98775">
        <ele>166</ele>
        <time>2013-09-22T15:28:43Z</time>
      </trkpt>
      <trkpt lat="47.99" lon="2.98783">
        <ele>167</ele>
        <time>2013-09-22T15:28:44Z</time>
      </trkpt>
      <trkpt lat="47.9902" lon="2.9879">
        <ele>166</ele>
        <time>2013-09-22T15:28:45Z</time>
      </trkpt>
      <trkpt lat="47.99039" lon="2.98798">
        <ele>166</ele>
        <time>2013-09-22T15:28:46Z</time>
      </trkpt>
      <trkpt lat="47.99058" lon="2.98806">
        <ele>166</ele>
        <time>2013-09-22T15:28:47Z</time>
      </trkpt>
      <trkpt lat="47.99075" lon="2.98817">
        <ele>166</ele>
        <time>2013-09-22T15:28:48Z</time>
      </trkpt>
      <trkpt lat="47.99093" lon="2.98829">
        <ele>165</ele>
        <time>2013-09-22T15:28:49Z</time>
      </trkpt>
      <trkpt lat="47.9911" lon="2.98845">
        <ele>166</ele>
        <time>2013-09-22T15:28:50Z</time>
      </trkpt>
      <trkpt lat="47.99126" lon="2.98861">
        <ele>165</ele>
        <time>2013-09-22T15:28:51Z</time>
      </trkpt>
      <trkpt lat="47.99142" lon="2.98876">
        <ele>169</ele>
        <time>2013-09-22T15:28:52Z</time>
      </trkpt>
      <trkpt lat="47.99165" lon="2.98908">
        <ele>168</ele>
        <time>2013-09-22T15:28:54Z</time>
      </trkpt>
      <trkpt lat="47.9918" lon="2.98954">
        <ele>168</ele>
        <time>2013-09-22T15:28:56Z</time>
      </trkpt>
      <trkpt lat="47.99191" lon="2.99004">
        <ele>165</ele>
        <time>2013-09-22T15:28:58Z</time>
      </trkpt>
      <trkpt lat="47.99199" lon="2.99031">
        <ele>165</ele>
        <time>2013-09-22T15:28:59Z</time>
      </trkpt>
      <trkpt lat="47.99206" lon="2.99059">
        <ele>166</ele>
        <time>2013-09-22T15:29:00Z</time>
      </trkpt>
      <trkpt lat="47.99214" lon="2.99085">
        <ele>166</ele>
        <time>2013-09-22T15:29:01Z</time>
      </trkpt>
      <trkpt lat="47.99223" lon="2.99113">
        <ele>166</ele>
        <time>2013-09-22T15:29:02Z</time>
      </trkpt>
      <trkpt lat="47.99233" lon="2.99138">
        <ele>166</ele>
        <time>2013-09-22T15:29:03Z</time>
      </trkpt>
      <trkpt lat="47.99245" lon="2.99165">
        <ele>167</ele>
        <time>2013-09-22T15:29:04Z</time>
      </trkpt>
      <trkpt lat="47.99258" lon="2.99189">
        <ele>167</ele>
        <time>2013-09-22T15:29:05Z</time>
      </trkpt>
      <trkpt lat="47.9927" lon="2.99214">
        <ele>168</ele>
        <time>2013-09-22T15:29:06Z</time>
      </trkpt>
      <trkpt lat="47.99283" lon="2.99239">
        <ele>169</ele>
        <time>2013-09-22T15:29:07Z</time>
      </trkpt>
      <trkpt lat="47.99295" lon="2.99264">
        <ele>169</ele>
        <time>2013-09-22T15:29:08Z</time>
      </trkpt>
      <trkpt lat="47.99307" lon="2.99289">
        <ele>169</ele>
        <time>2013-09-22T15:29:09Z</time>
      </trkpt>
      <trkpt lat="47.99319" lon="2.99313">
        <ele>169</ele>
        <time>2013-09-22T15:29:10Z</time>
      </trkpt>
      <trkpt lat="47.99332" lon="2.99337">
        <ele>169</ele>
        <time>2013-09-22T15:29:11Z</time>
      </trkpt>
      <trkpt lat="47.99346" lon="2.99356">
        <ele>169</ele>
        <time>2013-09-22T15:29:12Z</time>
      </trkpt>
      <trkpt lat="47.99362" lon="2.99374">
        <ele>169</ele>
        <time>2013-09-22T15:29:13Z</time>
      </trkpt>
      <trkpt lat="47.99379" lon="2.99392">
        <ele>169</ele>
        <time>2013-09-22T15:29:14Z</time>
      </trkpt>
      <trkpt lat="47.99396" lon="2.99408">
        <ele>169</ele>
        <time>2013-09-22T15:29:15Z</time>
      </trkpt>
      <trkpt lat="47.99412" lon="2.99422">
        <ele>169</ele>
        <time>2013-09-22T15:29:16Z</time>
      </trkpt>
      <trkpt lat="47.99442" lon="2.9945">
        <ele>167</ele>
        <time>2013-09-22T15:29:18Z</time>
      </trkpt>
      <trkpt lat="47.9947" lon="2.99477">
        <ele>168</ele>
        <time>2013-09-22T15:29:20Z</time>
      </trkpt>
      <trkpt lat="47.99494" lon="2.99499">
        <ele>169</ele>
        <time>2013-09-22T15:29:22Z</time>
      </trkpt>
      <trkpt lat="47.99511" lon="2.99512">
        <ele>169</ele>
        <time>2013-09-22T15:29:24Z</time>
      </trkpt>
    </trkseg>
  </trk>
</gpx>